Time;durP1;ratioP1;P1;durP2;ratioP2;P2;SDS_P1;SDS_P2;PMS_P1;PMS_P2;Temp;Humidity;BMP_temperature;BMP_pressure;BME280_temperature;BME280_humidity;BME280_pressure;Samples;Min_cycle;Max_cycle;Signal;HPM_P1;HPM_P2
2021/12/11 00:00:50;;;;;;;3.90;3.50;;;;;;;4.73;100.00;94973.66;5011924;28;20128;-44
2021/12/11 00:03:22;;;;;;;3.60;3.20;;;;;;;4.84;100.00;94975.25;5018807;28;20066;-45
2021/12/11 00:05:54;;;;;;;6.57;3.55;;;;;;;4.91;100.00;94976.31;5022943;28;20547;-48
2021/12/11 00:08:25;;;;;;;4.00;3.60;;;;;;;5.02;100.00;94979.69;5008290;28;20070;-47
2021/12/11 00:11:01;;;;;;;4.85;3.45;;;;;;;5.04;100.00;94985.59;5014017;28;20080;-46
2021/12/11 00:13:31;;;;;;;4.00;3.40;;;;;;;4.90;100.00;94994.75;5014627;28;20694;-48
2021/12/11 00:16:01;;;;;;;3.70;3.25;;;;;;;4.57;100.00;94993.53;5011703;28;20124;-48
2021/12/11 00:18:31;;;;;;;5.43;3.55;;;;;;;4.78;100.00;94998.50;5022321;28;20523;-48
2021/12/11 00:21:03;;;;;;;3.30;3.00;;;;;;;4.69;100.00;94995.00;5011857;28;20919;-45
2021/12/11 00:23:35;;;;;;;3.30;3.00;;;;;;;4.61;100.00;94994.88;5009872;28;20077;-47
2021/12/11 00:26:06;;;;;;;13.90;3.92;;;;;;;4.66;100.00;94998.72;5015204;28;20061;-47
2021/12/11 00:28:43;;;;;;;5.25;3.30;;;;;;;4.60;100.00;95011.50;5015705;28;20069;-48
2021/12/11 00:31:12;;;;;;;3.55;3.00;;;;;;;4.62;100.00;95012.22;4994794;28;20170;-48
2021/12/11 00:33:41;;;;;;;4.05;3.20;;;;;;;4.89;100.00;95016.63;5011328;28;20157;-45
2021/12/11 00:36:12;;;;;;;4.47;3.25;;;;;;;4.74;100.00;95022.31;4997859;28;20061;-47
2021/12/11 00:38:41;;;;;;;3.47;3.00;;;;;;;4.65;100.00;95012.75;5006995;28;20077;-46
2021/12/11 00:41:14;;;;;;;3.25;2.95;;;;;;;4.81;100.00;95040.00;5018761;28;20080;-46
2021/12/11 00:43:43;;;;;;;3.30;2.70;;;;;;;4.54;100.00;95031.16;5010309;28;20033;-45
2021/12/11 00:46:15;;;;;;;3.00;2.70;;;;;;;4.47;100.00;95041.38;5011974;28;20085;-47
2021/12/11 00:48:44;;;;;;;3.67;3.10;;;;;;;4.92;100.00;95043.28;4988385;28;20482;-44
2021/12/11 00:51:14;;;;;;;4.43;3.03;;;;;;;4.75;100.00;95050.06;5004331;28;20077;-46
2021/12/11 00:53:46;;;;;;;3.25;2.90;;;;;;;5.03;100.00;95049.28;5021136;28;20114;-45
2021/12/11 00:56:18;;;;;;;3.15;2.80;;;;;;;4.57;100.00;95043.13;5011723;28;20079;-44
2021/12/11 00:58:50;;;;;;;4.80;2.88;;;;;;;4.81;100.00;95064.34;5009923;28;20092;-46
2021/12/11 01:01:20;;;;;;;3.22;2.70;;;;;;;4.74;100.00;95068.47;5016655;28;20073;-47
2021/12/11 01:03:53;;;;;;;3.22;2.90;;;;;;;4.66;100.00;95066.59;5018501;28;20081;-47
2021/12/11 01:06:26;;;;;;;3.20;2.90;;;;;;;4.62;100.00;95064.41;5010140;28;20532;-49
2021/12/11 01:08:59;;;;;;;3.88;3.00;;;;;;;4.71;100.00;95084.44;5014764;28;20064;-44
2021/12/11 01:11:31;;;;;;;3.17;2.88;;;;;;;4.76;100.00;95090.88;5014270;28;20085;-46
2021/12/11 01:14:10;;;;;;;4.05;2.85;;;;;;;4.67;100.00;95088.28;5012700;28;20138;-49
2021/12/11 01:16:40;;;;;;;3.58;2.38;;;;;;;4.66;100.00;95095.31;5020633;28;20656;-44
2021/12/11 01:19:16;;;;;;;3.95;3.00;;;;;;;4.44;100.00;95091.25;5014049;28;20085;-45
2021/12/11 01:21:56;;;;;;;3.40;2.92;;;;;;;4.80;100.00;95104.47;5008018;28;20733;-44
2021/12/11 01:24:31;;;;;;;3.40;3.10;;;;;;;5.01;100.00;95104.25;5014896;28;20080;-45
2021/12/11 01:27:04;;;;;;;3.00;2.70;;;;;;;4.65;100.00;95106.72;4997514;28;20061;-45
2021/12/11 01:29:33;;;;;;;3.42;2.70;;;;;;;4.63;100.00;95100.00;5003395;28;20069;-45
2021/12/11 01:32:03;;;;;;;2.75;2.55;;;;;;;4.74;100.00;95111.06;5021477;28;20069;-47
2021/12/11 01:34:32;;;;;;;3.25;2.50;;;;;;;4.56;100.00;95097.13;5008429;28;20465;-45
2021/12/11 01:37:03;;;;;;;3.03;2.83;;;;;;;4.77;100.00;95115.19;5009738;28;20073;-44
2021/12/11 01:39:33;;;;;;;5.43;2.97;;;;;;;4.98;100.00;95118.41;5021321;28;20085;-48
2021/12/11 01:42:08;;;;;;;4.30;2.80;;;;;;;4.91;100.00;95122.56;5015151;28;20065;-44
2021/12/11 01:44:38;;;;;;;3.30;2.78;;;;;;;4.90;100.00;95130.56;5019484;28;20081;-48
2021/12/11 01:47:09;;;;;;;5.32;2.60;;;;;;;4.92;100.00;95133.84;5016470;28;20069;-50
2021/12/11 01:49:39;;;;;;;4.65;2.80;;;;;;;4.82;100.00;95138.28;5009272;28;20097;-47
2021/12/11 01:52:12;;;;;;;2.97;2.78;;;;;;;4.65;100.00;95145.88;5019045;28;20085;-47
2021/12/11 01:54:44;;;;;;;2.90;2.70;;;;;;;4.78;100.00;95142.94;5012693;28;20089;-47
2021/12/11 01:57:22;;;;;;;3.38;2.70;;;;;;;4.97;100.00;95147.31;5008270;28;20077;-47
2021/12/11 01:59:54;;;;;;;2.63;2.42;;;;;;;4.45;100.00;95147.72;5008360;28;20062;-46
2021/12/11 02:02:26;;;;;;;2.97;2.78;;;;;;;4.70;100.00;95158.50;5017241;28;20083;-47
2021/12/11 02:04:55;;;;;;;4.43;2.83;;;;;;;4.45;100.00;95158.16;5013829;28;20069;-49
2021/12/11 02:07:26;;;;;;;3.20;2.90;;;;;;;4.62;100.00;95150.56;5019432;28;20117;-44
2021/12/11 02:09:58;;;;;;;3.38;3.08;;;;;;;4.84;100.00;95165.91;5019905;28;20493;-49
2021/12/11 02:12:33;;;;;;;2.75;2.55;;;;;;;4.76;100.00;95165.78;5018238;28;20069;-46
2021/12/11 02:15:04;;;;;;;3.20;2.90;;;;;;;4.78;100.00;95166.47;5023607;28;21173;-44
2021/12/11 02:17:35;;;;;;;3.05;2.65;;;;;;;4.79;100.00;95173.34;5014401;28;20478;-50
2021/12/11 02:20:07;;;;;;;3.05;2.83;;;;;;;4.77;100.00;95175.25;5010184;28;20057;-51
2021/12/11 02:22:43;;;;;;;3.53;3.03;;;;;;;4.92;100.00;95170.41;5001374;28;20085;-47
2021/12/11 02:25:16;;;;;;;3.03;2.83;;;;;;;4.59;100.00;95176.97;5015910;28;20091;-45
2021/12/11 02:27:46;;;;;;;2.88;2.67;;;;;;;4.56;100.00;95185.06;5011904;28;20515;-44
2021/12/11 02:30:25;;;;;;;3.00;2.80;;;;;;;4.71;100.00;95183.66;5020892;28;20064;-45
2021/12/11 02:32:57;;;;;;;3.20;2.80;;;;;;;5.05;100.00;95186.59;5011770;28;20074;-43
2021/12/11 02:35:32;;;;;;;2.95;2.70;;;;;;;4.84;100.00;95192.00;5014897;28;20325;-44
2021/12/11 02:38:08;;;;;;;3.17;2.90;;;;;;;4.71;100.00;95196.72;5017935;28;20069;-48
2021/12/11 02:40:41;;;;;;;2.80;2.55;;;;;;;4.72;100.00;95203.59;5012383;28;20087;-45
2021/12/11 02:43:13;;;;;;;3.65;2.78;;;;;;;4.61;100.00;95198.50;5017867;28;20077;-43
2021/12/11 02:45:45;;;;;;;3.38;2.90;;;;;;;4.71;100.00;95204.53;5013715;28;20491;-49
2021/12/11 02:48:16;;;;;;;2.83;2.63;;;;;;;4.72;100.00;95219.25;5015245;28;20076;-49
2021/12/11 02:50:48;;;;;;;3.47;3.00;;;;;;;4.86;100.00;95213.59;5011117;28;20072;-48
2021/12/11 02:53:21;;;;;;;4.38;2.78;;;;;;;4.75;100.00;95213.78;5019104;28;20546;-44
2021/12/11 02:55:54;;;;;;;3.00;2.78;;;;;;;4.73;100.00;95218.28;5011222;28;20065;-45
2021/12/11 02:58:24;;;;;;;2.75;2.55;;;;;;;4.90;100.00;95222.81;5008843;28;20094;-47
2021/12/11 03:00:56;;;;;;;3.40;3.10;;;;;;;4.77;100.00;95224.88;5017061;28;20081;-44
2021/12/11 03:03:32;;;;;;;3.00;2.80;;;;;;;4.89;100.00;95228.19;5010429;28;20683;-46
2021/12/11 03:06:06;;;;;;;3.83;2.90;;;;;;;4.80;100.00;95240.28;5025606;28;20123;-46
2021/12/11 03:08:36;;;;;;;2.92;2.60;;;;;;;4.73;100.00;95239.19;5013058;28;20069;-47
2021/12/11 03:11:09;;;;;;;4.55;2.85;;;;;;;4.72;100.00;95238.38;5017081;28;20600;-43
2021/12/11 03:13:39;;;;;;;3.13;2.80;;;;;;;4.88;100.00;95242.19;5012766;28;20092;-46
2021/12/11 03:16:09;;;;;;;3.00;2.80;;;;;;;4.73;100.00;95244.41;5014616;28;20662;-42
2021/12/11 03:18:38;;;;;;;3.42;3.10;;;;;;;4.80;100.00;95245.50;5012251;28;20074;-46
2021/12/11 03:21:07;;;;;;;3.08;2.88;;;;;;;4.62;100.00;95250.59;5021088;28;20069;-46
2021/12/11 03:23:37;;;;;;;3.47;3.17;;;;;;;5.04;100.00;95252.88;5010770;28;20087;-45
2021/12/11 03:26:05;;;;;;;3.08;2.78;;;;;;;4.58;100.00;95261.47;5016205;28;21142;-45
2021/12/11 03:28:34;;;;;;;4.45;3.13;;;;;;;4.54;100.00;95266.09;5016541;28;20528;-43
2021/12/11 03:31:04;;;;;;;4.32;3.20;;;;;;;4.94;100.00;95265.13;5015183;28;20532;-45
2021/12/11 03:33:34;;;;;;;;;;;;;;;4.81;100.00;95278.47;5010190;28;20546;-44
2021/12/11 03:36:03;;;;;;;3.08;2.80;;;;;;;4.87;100.00;95277.94;5016469;28;20484;-44
2021/12/11 03:38:32;;;;;;;4.47;2.97;;;;;;;4.84;100.00;95283.41;5010172;28;20076;-45
2021/12/11 03:41:02;;;;;;;3.20;2.90;;;;;;;4.88;100.00;95283.97;5015609;28;20523;-46
2021/12/11 03:43:31;;;;;;;2.95;2.75;;;;;;;4.74;100.00;95293.03;5014115;28;20464;-44
2021/12/11 03:46:02;;;;;;;3.40;3.10;;;;;;;4.90;100.00;95293.31;5016867;28;20081;-45
2021/12/11 03:48:33;;;;;;;4.72;2.92;;;;;;;4.83;100.00;95296.63;5020443;28;20104;-47
2021/12/11 03:51:02;;;;;;;2.80;2.60;;;;;;;4.81;100.00;95298.53;5013164;28;20058;-44
2021/12/11 03:53:31;;;;;;;4.27;3.00;;;;;;;4.97;100.00;95299.63;5012650;28;20058;-44
2021/12/11 03:56:03;;;;;;;3.10;2.90;;;;;;;4.93;100.00;95307.91;5007942;28;20069;-43
2021/12/11 03:58:32;;;;;;;3.47;3.17;;;;;;;4.83;100.00;95304.47;5009968;28;20091;-47
2021/12/11 04:01:07;;;;;;;3.40;2.90;;;;;;;4.55;100.00;95312.16;5027757;28;20093;-44
2021/12/11 04:03:39;;;;;;;3.40;3.13;;;;;;;4.78;100.00;95314.47;5011467;28;20065;-44
2021/12/11 04:06:09;;;;;;;3.30;3.00;;;;;;;4.57;100.00;95318.03;4995314;28;20513;-45
2021/12/11 04:08:41;;;;;;;4.00;2.83;;;;;;;4.59;100.00;95315.31;5003848;28;20523;-46
2021/12/11 04:11:14;;;;;;;3.20;2.90;;;;;;;4.54;100.00;95320.94;5015068;28;20061;-46
2021/12/11 04:13:42;;;;;;;3.42;3.13;;;;;;;4.79;100.00;95331.81;5007481;28;20273;-45
2021/12/11 04:16:12;;;;;;;5.47;3.13;;;;;;;5.02;100.00;95327.94;5016378;28;20104;-51
2021/12/11 04:18:42;;;;;;;4.43;3.60;;;;;;;4.96;100.00;95329.34;5020803;28;20523;-44
2021/12/11 04:21:11;;;;;;;3.60;3.13;;;;;;;4.71;100.00;95335.09;5007297;28;20061;-50
2021/12/11 04:23:40;;;;;;;4.43;2.90;;;;;;;4.65;100.00;95339.09;5018668;28;20061;-47
2021/12/11 04:26:09;;;;;;;3.90;3.50;;;;;;;4.51;100.00;95337.69;5002181;28;20069;-47
2021/12/11 04:28:40;;;;;;;3.75;3.40;;;;;;;4.91;100.00;95344.59;4995283;28;20697;-46
2021/12/11 04:31:13;;;;;;;3.60;3.30;;;;;;;4.82;100.00;95342.81;5021573;28;20529;-43
2021/12/11 04:33:45;;;;;;;4.38;3.45;;;;;;;4.66;100.00;95343.34;5008295;28;20073;-43
2021/12/11 04:36:17;;;;;;;2.97;2.78;;;;;;;4.49;100.00;95346.63;5012050;28;20065;-44
2021/12/11 04:38:47;;;;;;;3.42;3.13;;;;;;;4.67;100.00;95346.78;5014845;28;20061;-44
2021/12/11 04:41:21;;;;;;;3.40;3.10;;;;;;;4.59;100.00;95359.69;5006902;28;20719;-45
2021/12/11 04:43:52;;;;;;;4.05;3.00;;;;;;;4.62;100.00;95360.25;5011577;28;20057;-46
2021/12/11 04:46:21;;;;;;;3.70;3.40;;;;;;;4.70;100.00;95368.22;5019490;28;20095;-45
2021/12/11 04:48:57;;;;;;;5.47;3.40;;;;;;;4.46;100.00;95368.59;5012582;28;20081;-47
2021/12/11 04:51:34;;;;;;;3.95;3.00;;;;;;;4.62;100.00;95375.09;5011573;28;20173;-43
2021/12/11 04:54:14;;;;;;;4.05;3.17;;;;;;;4.41;100.00;95386.44;5010838;28;20523;-43
2021/12/11 04:59:54;;;;;;;3.97;3.38;;;;;;;4.86;100.00;95387.78;5044613;27;20635;-45
2021/12/11 05:02:54;;;;;;;4.63;3.30;;;;;;;4.69;100.00;95391.88;5020744;28;20467;-44
2021/12/11 05:05:40;;;;;;;3.33;3.03;;;;;;;4.61;100.00;95396.91;5027783;28;20060;-44
2021/12/11 05:08:27;;;;;;;2.97;2.78;;;;;;;4.46;100.00;95399.09;5027314;28;20421;-44
2021/12/11 05:10:59;;;;;;;3.50;2.88;;;;;;;4.59;100.00;95404.91;5015996;28;20068;-43
2021/12/11 05:13:29;;;;;;;3.28;2.97;;;;;;;4.51;100.00;95413.41;5016673;28;20482;-47
2021/12/11 05:16:01;;;;;;;3.38;2.85;;;;;;;4.66;100.00;95418.25;5038427;28;20077;-44
2021/12/11 05:18:32;;;;;;;3.60;2.75;;;;;;;4.22;100.00;95409.88;5016285;28;20073;-44
2021/12/11 05:21:04;;;;;;;3.40;3.10;;;;;;;4.53;100.00;95421.09;5029471;28;20075;-43
2021/12/11 05:23:32;;;;;;;3.35;3.10;;;;;;;4.50;100.00;95424.78;5026805;28;20077;-43
2021/12/11 05:26:01;;;;;;;3.40;3.10;;;;;;;4.55;100.00;95419.19;5020390;28;20069;-43
2021/12/11 05:28:29;;;;;;;3.60;3.30;;;;;;;4.39;100.00;95434.50;5042768;28;20084;-42
2021/12/11 05:31:01;;;;;;;3.20;2.95;;;;;;;4.39;100.00;95434.50;5034809;28;20084;-43
2021/12/11 05:33:30;;;;;;;4.13;3.05;;;;;;;4.35;100.00;95449.59;5034418;28;20512;-43
2021/12/11 05:35:58;;;;;;;3.63;3.38;;;;;;;4.48;100.00;95442.38;5021807;28;20070;-47
2021/12/11 05:38:27;;;;;;;3.38;3.15;;;;;;;4.41;100.00;95446.47;5025427;28;20073;-46
2021/12/11 05:40:58;;;;;;;4.22;3.88;;;;;;;4.29;100.00;95443.13;5036610;28;20550;-47
2021/12/11 05:43:27;;;;;;;4.15;3.22;;;;;;;4.26;100.00;95451.22;5036205;28;20408;-43
2021/12/11 05:45:55;;;;;;;3.78;3.17;;;;;;;4.25;100.00;95449.56;5040489;28;20084;-43
2021/12/11 05:48:26;;;;;;;3.65;3.35;;;;;;;4.33;100.00;95455.91;5036213;28;20068;-44
2021/12/11 05:50:58;;;;;;;3.15;2.88;;;;;;;4.30;100.00;95451.78;5041753;28;20176;-46
2021/12/11 05:53:28;;;;;;;3.30;3.00;;;;;;;3.89;100.00;95450.91;5037476;28;20081;-42
2021/12/11 05:55:57;;;;;;;3.50;3.20;;;;;;;4.05;100.00;95459.06;5031591;28;20543;-48
2021/12/11 05:58:45;;;;;;;3.40;3.10;;;;;;;3.73;100.00;95463.56;5019054;28;20472;-44
2021/12/11 06:01:17;;;;;;;3.20;3.00;;;;;;;4.01;100.00;95464.69;5037501;28;20088;-42
2021/12/11 06:03:47;;;;;;;2.95;2.75;;;;;;;3.71;100.00;95471.50;5036322;28;20470;-42
2021/12/11 06:06:16;;;;;;;2.92;2.72;;;;;;;3.90;100.00;95480.41;5019067;28;20088;-44
2021/12/11 06:08:45;;;;;;;3.53;3.22;;;;;;;3.97;100.00;95487.59;5025955;28;20095;-43
2021/12/11 06:11:15;;;;;;;3.30;3.00;;;;;;;3.78;100.00;95484.84;5024718;28;20080;-44
2021/12/11 06:13:44;;;;;;;3.60;3.30;;;;;;;3.99;100.00;95490.91;5023298;28;20101;-42
2021/12/11 06:16:14;;;;;;;3.43;3.10;;;;;;;4.09;100.00;95492.72;5029971;28;20077;-45
2021/12/11 06:18:44;;;;;;;3.53;3.20;;;;;;;4.31;100.00;95497.00;5025771;28;20528;-42
2021/12/11 06:21:15;;;;;;;3.50;3.20;;;;;;;4.35;100.00;95503.59;5022840;28;20507;-50
2021/12/11 06:23:43;;;;;;;3.47;3.17;;;;;;;4.14;100.00;95506.22;5010958;28;20080;-43
2021/12/11 06:26:12;;;;;;;4.80;3.20;;;;;;;4.23;100.00;95518.47;5014778;28;20098;-45
2021/12/11 06:28:41;;;;;;;3.40;3.10;;;;;;;4.19;100.00;95520.53;5023054;28;20483;-46
2021/12/11 06:31:17;;;;;;;3.42;3.13;;;;;;;4.29;100.00;95521.41;5023502;28;20081;-48
2021/12/11 06:33:47;;;;;;;3.10;2.90;;;;;;;4.33;100.00;95528.97;5006416;28;21533;-50
2021/12/11 06:36:18;;;;;;;5.30;3.70;;;;;;;4.41;100.00;95537.00;5020336;28;20096;-48
2021/12/11 06:38:48;;;;;;;3.83;3.17;;;;;;;4.43;100.00;95542.91;5022912;28;20066;-50
2021/12/11 06:41:19;;;;;;;5.20;3.28;;;;;;;4.15;100.00;95544.41;5013719;28;20040;-48
2021/12/11 06:43:49;;;;;;;3.10;2.90;;;;;;;4.23;100.00;95550.66;5024721;28;20512;-48
2021/12/11 06:46:18;;;;;;;3.72;3.30;;;;;;;4.33;100.00;95548.06;5032421;28;20100;-46
2021/12/11 06:48:46;;;;;;;3.50;3.20;;;;;;;4.51;100.00;95562.22;5021823;28;20472;-50
2021/12/11 06:51:16;;;;;;;3.70;3.30;;;;;;;4.40;100.00;95562.25;5025878;28;20061;-47
2021/12/11 06:53:48;;;;;;;3.38;3.10;;;;;;;4.28;100.00;95568.53;5025564;28;20061;-45
2021/12/11 06:56:19;;;;;;;3.53;3.20;;;;;;;4.39;100.00;95580.69;5022407;28;20088;-45
2021/12/11 06:58:48;;;;;;;3.50;3.20;;;;;;;4.52;100.00;95576.09;5023395;28;20075;-47
2021/12/11 07:01:16;;;;;;;3.33;3.10;;;;;;;4.45;100.00;95595.81;5028554;28;20081;-48
2021/12/11 07:03:45;;;;;;;3.65;3.10;;;;;;;4.61;100.00;95604.03;5018270;28;20316;-43
2021/12/11 07:06:14;;;;;;;3.40;3.10;;;;;;;4.51;100.00;95611.81;5017762;28;20068;-43
2021/12/11 07:08:44;;;;;;;3.53;3.00;;;;;;;4.51;100.00;95611.81;5022097;28;20070;-48
2021/12/11 07:11:13;;;;;;;3.45;3.15;;;;;;;4.58;100.00;95622.56;5025288;28;20073;-48
2021/12/11 07:13:42;;;;;;;3.00;2.80;;;;;;;4.33;100.00;95626.38;5030933;28;20076;-48
2021/12/11 07:16:12;;;;;;;3.60;3.28;;;;;;;4.37;100.00;95640.00;5030004;28;20480;-50
2021/12/11 07:18:40;;;;;;;3.63;3.33;;;;;;;4.53;100.00;95643.00;5029276;28;20068;-47
2021/12/11 07:21:09;;;;;;;5.30;3.60;;;;;;;4.49;100.00;95655.47;5024508;28;20083;-47
2021/12/11 07:23:41;;;;;;;3.75;2.97;;;;;;;4.20;100.00;95667.50;5022733;28;20479;-48
2021/12/11 07:26:16;;;;;;;5.15;3.20;;;;;;;3.91;100.00;95675.06;5020616;28;20068;-48
2021/12/11 07:28:49;;;;;;;3.42;3.22;;;;;;;3.88;100.00;95676.13;5025670;28;20141;-49
2021/12/11 07:31:18;;;;;;;4.45;3.63;;;;;;;4.08;100.00;95679.75;5022414;28;20084;-52
2021/12/11 07:33:47;;;;;;;4.35;3.60;;;;;;;4.15;100.00;95687.91;5023005;28;20438;-48
2021/12/11 07:36:16;;;;;;;3.42;3.13;;;;;;;3.95;100.00;95690.31;5025807;28;20067;-48
2021/12/11 07:38:45;;;;;;;6.53;3.70;;;;;;;3.98;100.00;95704.91;5033040;28;20077;-48
2021/12/11 07:41:16;;;;;;;3.72;3.42;;;;;;;3.83;100.00;95714.78;5019656;28;20065;-47
2021/12/11 07:43:46;;;;;;;4.95;3.70;;;;;;;3.69;100.00;95715.06;5017769;28;20065;-45
2021/12/11 07:46:17;;;;;;;5.63;3.70;;;;;;;4.07;100.00;95719.00;5025328;28;20088;-44
2021/12/11 07:48:46;;;;;;;4.40;4.00;;;;;;;4.04;100.00;95718.28;5024747;28;22711;-45
2021/12/11 07:51:16;;;;;;;5.55;3.90;;;;;;;4.15;100.00;95727.84;5023483;28;20056;-50
2021/12/11 07:53:45;;;;;;;5.50;3.97;;;;;;;4.12;100.00;95733.31;5022960;28;20073;-45
2021/12/11 07:56:17;;;;;;;3.80;3.50;;;;;;;3.92;100.00;95734.09;5024608;28;20069;-51
2021/12/11 07:58:46;;;;;;;6.00;4.28;;;;;;;4.11;100.00;95730.84;5021462;28;20068;-49
2021/12/11 08:01:15;;;;;;;4.60;4.20;;;;;;;3.98;100.00;95738.81;5019951;28;20544;-48
2021/12/11 08:03:44;;;;;;;4.50;3.75;;;;;;;4.14;100.00;95746.25;5022991;28;20487;-47
2021/12/11 08:06:14;;;;;;;4.00;3.70;;;;;;;4.19;100.00;95742.31;5019676;28;20069;-45
2021/12/11 08:08:44;;;;;;;4.05;3.30;;;;;;;4.17;100.00;95746.84;5020404;28;20076;-44
2021/12/11 08:11:17;;;;;;;4.25;3.78;;;;;;;4.05;100.00;95756.47;5021814;28;20550;-46
2021/12/11 08:13:48;;;;;;;3.75;3.45;;;;;;;4.16;100.00;95753.00;5019674;28;20057;-48
2021/12/11 08:16:21;;;;;;;4.30;3.92;;;;;;;4.15;100.00;95768.78;5017851;28;20154;-47
2021/12/11 08:18:53;;;;;;;4.60;4.05;;;;;;;4.16;100.00;95776.47;5024656;28;21561;-50
2021/12/11 08:21:22;;;;;;;4.32;3.80;;;;;;;4.23;100.00;95779.44;5021693;28;20069;-42
2021/12/11 08:23:54;;;;;;;3.88;3.58;;;;;;;4.12;100.00;95784.69;5019560;28;20077;-47
2021/12/11 08:26:25;;;;;;;4.72;3.78;;;;;;;3.91;100.00;95787.19;5008218;28;20062;-44
2021/12/11 08:28:54;;;;;;;4.68;4.22;;;;;;;4.08;100.00;95788.50;5005004;28;20069;-43
2021/12/11 08:31:24;;;;;;;5.20;4.50;;;;;;;4.30;100.00;95798.84;5025785;28;20495;-45
2021/12/11 08:33:54;;;;;;;4.75;4.35;;;;;;;4.37;100.00;95809.63;5022450;28;20089;-43
2021/12/11 08:36:23;;;;;;;5.82;4.60;;;;;;;4.25;100.00;95808.84;5011820;28;20633;-47
2021/12/11 08:38:52;;;;;;;3.95;3.65;;;;;;;4.10;100.00;95813.50;5020234;28;20064;-42
2021/12/11 08:41:25;;;;;;;4.82;4.30;;;;;;;4.27;100.00;95822.63;5017793;28;20565;-42
2021/12/11 08:43:58;;;;;;;5.20;4.70;;;;;;;4.19;100.00;95822.38;5018993;28;20068;-44
2021/12/11 08:46:28;;;;;;;4.70;4.30;;;;;;;4.34;100.00;95833.41;5021404;28;20519;-43
2021/12/11 08:48:59;;;;;;;4.82;4.32;;;;;;;4.72;100.00;95835.56;5003442;28;20089;-45
2021/12/11 08:51:30;;;;;;;3.33;3.13;;;;;;;4.22;100.00;95838.63;4994340;28;20469;-49
2021/12/11 08:54:00;;;;;;;4.85;4.35;;;;;;;4.25;100.00;95848.81;5001658;28;20069;-43
2021/12/11 08:56:30;;;;;;;5.15;4.18;;;;;;;4.47;100.00;95854.94;5009940;28;20065;-46
2021/12/11 08:58:59;;;;;;;3.45;3.20;;;;;;;4.18;100.00;95858.09;5029521;28;20065;-44
2021/12/11 09:01:31;;;;;;;6.40;5.10;;;;;;;4.54;100.00;95866.56;5025558;28;20558;-44
2021/12/11 09:04:03;;;;;;;5.43;4.60;;;;;;;4.39;100.00;95873.84;5029531;28;20065;-46
2021/12/11 09:06:35;;;;;;;5.28;4.72;;;;;;;4.69;100.00;95874.97;5023969;28;20080;-46
2021/12/11 09:09:08;;;;;;;5.25;4.75;;;;;;;4.50;100.00;95883.41;5021549;28;20099;-44
2021/12/11 09:11:41;;;;;;;3.85;3.53;;;;;;;4.21;100.00;95886.56;5020639;28;20069;-41
2021/12/11 09:14:12;;;;;;;4.82;3.83;;;;;;;4.44;100.00;95882.16;5013454;28;20068;-43
2021/12/11 09:16:44;;;;;;;25.58;4.28;;;;;;;4.10;100.00;95893.56;5019569;28;20842;-50
2021/12/11 09:19:15;;;;;;;3.50;3.20;;;;;;;4.21;100.00;95902.22;5022825;28;20077;-46
2021/12/11 09:21:50;;;;;;;4.80;4.30;;;;;;;4.19;100.00;95911.09;5021796;28;20113;-48
2021/12/11 09:24:24;;;;;;;4.78;4.28;;;;;;;4.54;100.00;95916.16;5020620;28;20527;-46
2021/12/11 09:26:56;;;;;;;3.83;3.53;;;;;;;4.39;100.00;95909.56;5021565;28;20531;-46
2021/12/11 09:29:28;;;;;;;4.75;3.50;;;;;;;4.39;100.00;95909.56;5018651;28;20070;-42
2021/12/11 09:32:05;;;;;;;5.72;5.22;;;;;;;4.23;100.00;95923.81;5017159;28;20073;-44
2021/12/11 09:34:36;;;;;;;4.38;3.60;;;;;;;4.25;100.00;95921.06;5019392;28;20095;-51
2021/12/11 09:37:07;;;;;;;6.15;4.85;;;;;;;4.28;100.00;95932.09;5023926;28;20072;-47
2021/12/11 09:39:39;;;;;;;3.97;3.58;;;;;;;4.28;100.00;95941.72;5020183;28;20071;-50
2021/12/11 09:42:07;;;;;;;4.13;3.72;;;;;;;4.33;100.00;95947.38;5019200;28;20137;-45
2021/12/11 09:44:41;;;;;;;4.35;4.00;;;;;;;4.17;100.00;95939.09;5022807;28;20073;-51
2021/12/11 09:47:13;;;;;;;3.70;3.20;;;;;;;4.35;100.00;95948.13;5022090;28;20072;-45
2021/12/11 09:49:44;;;;;;;4.82;4.38;;;;;;;4.12;100.00;95947.28;5024127;28;20068;-48
2021/12/11 09:52:18;;;;;;;4.63;3.65;;;;;;;4.13;100.00;95951.56;5033644;28;20597;-43
2021/12/11 09:54:51;;;;;;;4.18;3.78;;;;;;;4.24;100.00;95953.34;5023836;28;20069;-50
2021/12/11 09:57:21;;;;;;;4.03;3.65;;;;;;;4.19;100.00;95958.91;5028959;28;20061;-48
2021/12/11 09:59:53;;;;;;;5.18;4.68;;;;;;;4.51;100.00;95959.03;5024903;28;20072;-52
2021/12/11 10:02:25;;;;;;;4.53;4.10;;;;;;;4.16;100.00;95966.94;5023724;28;20475;-50
2021/12/11 10:05:00;;;;;;;5.80;5.15;;;;;;;4.43;100.00;95965.78;5023885;28;20045;-45
2021/12/11 10:07:34;;;;;;;5.60;5.10;;;;;;;4.67;100.00;95976.09;5022095;28;20085;-47
2021/12/11 10:10:11;;;;;;;4.43;4.03;;;;;;;4.53;100.00;95978.00;5022388;28;20095;-47
2021/12/11 10:12:43;;;;;;;5.60;5.00;;;;;;;4.63;100.00;95979.91;5025196;28;20073;-47
2021/12/11 10:15:16;;;;;;;4.53;3.83;;;;;;;4.55;100.00;95977.06;5027192;28;20079;-52
2021/12/11 10:17:48;;;;;;;5.72;4.05;;;;;;;4.58;100.00;95982.88;5030708;28;20471;-48
2021/12/11 10:20:21;;;;;;;5.30;4.80;;;;;;;4.71;100.00;95994.03;5027063;28;20439;-51
2021/12/11 10:22:50;;;;;;;4.32;3.92;;;;;;;4.58;100.00;95998.56;5021842;28;20076;-49
2021/12/11 10:25:21;;;;;;;6.00;4.00;;;;;;;4.53;100.00;96001.50;5019558;28;20077;-51
2021/12/11 10:27:50;;;;;;;5.43;4.72;;;;;;;4.73;100.00;96007.78;5022593;28;21397;-45
2021/12/11 10:30:24;;;;;;;5.38;4.88;;;;;;;4.55;100.00;96008.41;5023721;28;20653;-45
2021/12/11 10:32:53;;;;;;;4.25;3.85;;;;;;;4.56;100.00;96013.50;5027948;28;20065;-49
2021/12/11 10:35:25;;;;;;;6.05;5.45;;;;;;;4.65;100.00;96025.03;5026809;28;20251;-44
2021/12/11 10:37:54;;;;;;;5.45;4.85;;;;;;;4.72;100.00;96027.03;5023728;28;20085;-43
2021/12/11 10:40:27;;;;;;;5.10;4.60;;;;;;;4.71;100.00;96046.28;5024067;28;20550;-46
2021/12/11 10:43:00;;;;;;;5.30;4.78;;;;;;;4.52;100.00;96038.19;5025808;28;20069;-49
2021/12/11 10:45:31;;;;;;;5.75;5.15;;;;;;;4.60;100.00;96037.59;5022901;28;20065;-48
2021/12/11 10:48:03;;;;;;;6.13;5.53;;;;;;;4.57;100.00;96043.03;5030049;28;20076;-45
2021/12/11 10:50:35;;;;;;;5.22;4.70;;;;;;;4.44;100.00;96043.16;5023160;28;20468;-43
2021/12/11 10:53:07;;;;;;;4.47;3.95;;;;;;;4.23;100.00;96056.91;5022609;28;20095;-44
2021/12/11 10:55:37;;;;;;;5.65;5.13;;;;;;;4.57;100.00;96053.50;5017777;28;20081;-44
2021/12/11 10:58:08;;;;;;;5.97;4.83;;;;;;;4.50;100.00;96060.97;5028091;28;20080;-47
2021/12/11 11:00:42;;;;;;;6.60;5.93;;;;;;;4.64;100.00;96054.69;5019727;28;20527;-44
2021/12/11 11:03:11;;;;;;;5.68;5.07;;;;;;;4.62;100.00;96062.66;5019358;28;20076;-42
2021/12/11 11:05:40;;;;;;;5.18;4.28;;;;;;;4.40;100.00;96063.44;5020463;28;20105;-44
2021/12/11 11:08:09;;;;;;;5.18;4.40;;;;;;;4.60;100.00;96071.53;5020537;28;20079;-46
2021/12/11 11:10:40;;;;;;;4.88;4.22;;;;;;;4.62;100.00;96074.88;5026448;28;20077;-43
2021/12/11 11:13:13;;;;;;;7.28;4.93;;;;;;;4.57;100.00;96082.22;5021269;28;20069;-50
2021/12/11 11:15:44;;;;;;;6.30;5.70;;;;;;;4.62;100.00;96090.53;5023231;28;20084;-47
2021/12/11 11:18:15;;;;;;;6.10;4.90;;;;;;;4.63;100.00;96087.78;5021649;28;20057;-45
2021/12/11 11:20:46;;;;;;;6.47;4.80;;;;;;;4.46;100.00;96094.31;5025814;28;20076;-46
2021/12/11 11:23:15;;;;;;;5.60;5.05;;;;;;;4.68;100.00;96100.50;5019666;28;20069;-46
2021/12/11 11:25:46;;;;;;;6.63;5.55;;;;;;;4.74;100.00;96108.69;5021237;28;20734;-46
2021/12/11 11:28:18;;;;;;;5.93;5.32;;;;;;;4.94;100.00;96099.31;5021513;28;20092;-44
2021/12/11 11:30:53;;;;;;;5.45;4.95;;;;;;;4.51;100.00;96107.03;5026596;28;21349;-44
2021/12/11 11:33:22;;;;;;;5.72;5.20;;;;;;;4.89;100.00;96114.53;5024604;28;20057;-50
2021/12/11 11:35:52;;;;;;;6.70;5.07;;;;;;;4.65;100.00;96114.63;5022511;28;20440;-43
2021/12/11 11:38:24;;;;;;;5.78;4.75;;;;;;;4.97;100.00;96112.16;5025457;28;20041;-49
2021/12/11 11:40:55;;;;;;;6.05;5.45;;;;;;;5.13;100.00;96121.44;5021369;28;20061;-44
2021/12/11 11:43:25;;;;;;;5.88;5.28;;;;;;;5.08;100.00;96121.78;5021621;28;20089;-43
2021/12/11 11:45:56;;;;;;;3.97;3.67;;;;;;;5.05;100.00;96126.41;5028179;28;20314;-43
2021/12/11 11:48:26;;;;;;;3.55;3.25;;;;;;;4.91;100.00;96136.13;5021867;28;20045;-42
2021/12/11 11:51:13;;;;;;;6.45;5.20;;;;;;;5.24;100.00;96142.34;5021876;28;20069;-44
2021/12/11 11:53:42;;;;;;;6.35;5.35;;;;;;;5.02;100.00;96142.31;5019072;28;20069;-52
2021/12/11 11:56:16;;;;;;;4.45;4.05;;;;;;;4.82;100.00;96151.69;5021206;28;20560;-47